createdAt,value
2019-03-13T00:01:08.470Z,5.56
2019-03-13T00:03:43.840Z,5.51
2019-03-13T00:06:17.092Z,5.52
2019-03-13T00:08:49.605Z,5.52
2019-03-13T00:23:32.557Z,5.49
2019-03-13T00:26:11.179Z,5.50
2019-03-13T00:28:47.084Z,5.54
2019-03-13T00:31:19.567Z,5.55
2019-03-13T00:33:52.171Z,5.54
2019-03-13T00:36:24.524Z,5.59
2019-03-13T00:38:57.483Z,5.59
2019-03-13T00:41:30.983Z,5.59
2019-03-13T00:44:05.963Z,5.56
2019-03-13T00:46:39.977Z,5.58
2019-03-13T00:49:15.310Z,5.53
2019-03-13T00:51:51.312Z,5.40
2019-03-13T00:54:23.457Z,5.39
2019-03-13T00:56:54.712Z,5.35
2019-03-13T00:59:26.382Z,5.41
2019-03-13T01:02:13.178Z,5.45
2019-03-13T01:04:58.489Z,5.48
2019-03-13T01:07:29.739Z,5.41
2019-03-13T01:10:00.874Z,5.49
2019-03-13T01:12:32.124Z,5.46
2019-03-13T01:15:03.359Z,5.55
2019-03-13T01:17:34.544Z,5.52
2019-03-13T01:20:06.264Z,5.55
2019-03-13T01:22:37.517Z,5.54
2019-03-13T01:25:09.784Z,5.48
2019-03-13T01:27:41.647Z,5.43
2019-03-13T01:30:15.685Z,5.43
2019-03-13T01:32:52.521Z,5.52
2019-03-13T01:35:48.495Z,5.49
2019-03-13T01:38:19.670Z,5.45
2019-03-13T01:40:53.727Z,5.41
2019-03-13T01:43:25.004Z,5.39
2019-03-13T01:45:56.233Z,5.35
2019-03-13T01:48:27.466Z,5.32
2019-03-13T01:50:58.668Z,5.27
2019-03-13T01:53:29.895Z,5.19
2019-03-13T01:56:01.158Z,5.14
2019-03-13T01:58:32.375Z,5.12
2019-03-13T02:01:03.645Z,5.17
2019-03-13T02:03:34.888Z,5.26
2019-03-13T02:06:06.158Z,5.35
2019-03-13T02:08:37.375Z,5.46
2019-03-13T02:11:08.594Z,5.42
2019-03-13T02:13:39.838Z,5.50
2019-03-13T02:16:11.121Z,5.47
2019-03-13T02:18:42.355Z,5.54
2019-03-13T02:21:13.493Z,5.61
2019-03-13T02:23:44.740Z,5.63
2019-03-13T02:26:16.075Z,5.66
2019-03-13T02:28:49.728Z,5.70
2019-03-13T02:31:20.930Z,5.74
2019-03-13T02:33:52.260Z,5.68
2019-03-13T02:36:23.429Z,5.75
2019-03-13T02:41:56.553Z,5.81
2019-03-13T02:44:27.778Z,5.81
2019-03-13T02:46:59.109Z,5.78
2019-03-13T02:49:30.333Z,5.79
2019-03-13T02:52:01.573Z,5.77
2019-03-13T02:54:32.810Z,5.73
2019-03-13T02:57:04.136Z,5.70
2019-03-13T02:59:35.266Z,5.65
2019-03-13T03:02:37.158Z,5.63
2019-03-13T03:05:09.107Z,5.58
2019-03-13T03:07:40.426Z,5.55
2019-03-13T03:10:12.730Z,5.52
2019-03-13T03:12:43.957Z,5.56
2019-03-13T03:15:18.332Z,5.61
2019-03-13T03:17:49.512Z,5.69
2019-03-13T03:20:21.678Z,5.68
2019-03-13T03:22:52.854Z,5.61
2019-03-13T03:25:24.069Z,5.57
2019-03-13T03:27:55.182Z,5.61
2019-03-13T03:30:26.732Z,5.60
2019-03-13T03:32:58.076Z,5.49
2019-03-13T03:35:29.356Z,5.44
2019-03-13T03:38:00.465Z,5.37
2019-03-13T03:40:31.763Z,5.30
2019-03-13T03:43:02.986Z,5.37
2019-03-13T03:45:34.260Z,5.36
2019-03-13T03:48:05.463Z,5.52
2019-03-13T03:50:36.602Z,5.55
2019-03-13T03:53:07.764Z,5.59
2019-03-13T03:55:38.947Z,5.59
2019-03-13T03:58:10.289Z,5.70
2019-03-13T04:00:41.648Z,5.78
2019-03-13T04:03:12.922Z,5.82
2019-03-13T04:05:44.426Z,5.85
2019-03-13T04:11:20.422Z,5.87
2019-03-13T04:13:51.653Z,5.89
2019-03-13T04:16:22.926Z,5.91
2019-03-13T04:18:54.133Z,5.94
2019-03-13T04:21:25.383Z,5.97
2019-03-13T04:23:56.715Z,5.98
2019-03-13T04:26:27.989Z,6.00
2019-03-13T04:28:59.233Z,6.03
2019-03-13T04:31:30.620Z,6.04
2019-03-13T04:34:01.795Z,6.05
2019-03-13T04:36:33.088Z,6.07
2019-03-13T04:39:05.135Z,6.08
2019-03-13T04:41:36.315Z,6.07
2019-03-13T04:44:07.582Z,6.07
2019-03-13T04:46:38.742Z,6.09
2019-03-13T04:49:09.976Z,6.13
2019-03-13T04:51:41.214Z,6.14
2019-03-13T04:54:12.453Z,6.13
2019-03-13T04:56:43.730Z,6.13
2019-03-13T04:59:15.001Z,6.11
2019-03-13T05:01:46.112Z,6.10
2019-03-13T05:04:17.387Z,6.15
2019-03-13T05:06:48.594Z,6.14
2019-03-13T05:09:35.513Z,6.17
2019-03-13T05:12:06.756Z,6.15
2019-03-13T05:14:38.060Z,6.15
2019-03-13T05:17:09.190Z,6.17
2019-03-13T05:19:40.401Z,6.15
2019-03-13T05:22:11.691Z,6.17
2019-03-13T05:24:42.902Z,6.17
2019-03-13T05:27:14.269Z,6.19
2019-03-13T05:29:45.492Z,6.18
2019-03-13T05:32:16.783Z,6.18
2019-03-13T05:34:48.040Z,6.19
2019-03-13T05:37:19.245Z,6.23
2019-03-13T05:39:50.363Z,6.21
2019-03-13T05:42:21.603Z,6.16
2019-03-13T05:44:52.872Z,6.21
2019-03-13T05:47:24.133Z,6.25
2019-03-13T05:49:55.369Z,6.27
2019-03-13T05:52:26.618Z,6.23
2019-03-13T05:54:57.760Z,6.30
2019-03-13T05:57:28.978Z,6.33
2019-03-13T06:00:00.137Z,6.29
2019-03-13T06:02:31.395Z,6.29
2019-03-13T06:05:02.519Z,6.27
2019-03-13T06:07:33.721Z,6.24
2019-03-13T06:10:05.134Z,6.33
2019-03-13T06:12:36.413Z,6.34
2019-03-13T06:15:08.015Z,6.38
2019-03-13T06:17:39.323Z,6.32
2019-03-13T06:20:12.630Z,6.35
2019-03-13T06:22:43.799Z,6.37
2019-03-13T06:25:15.435Z,6.42
2019-03-13T06:27:46.932Z,6.48
2019-03-13T06:30:18.286Z,6.42
2019-03-13T06:32:49.568Z,6.50
2019-03-13T06:35:23.531Z,6.48
2019-03-13T06:37:53.714Z,6.51
2019-03-13T06:40:25.744Z,6.47
2019-03-13T06:42:57.127Z,6.48
2019-03-13T06:45:28.385Z,6.41
2019-03-13T06:47:59.520Z,6.26
2019-03-13T06:50:30.756Z,6.15
2019-03-13T06:53:02.062Z,6.04
2019-03-13T06:55:33.257Z,6.00
2019-03-13T06:58:04.499Z,5.90
2019-03-13T07:01:00.407Z,5.90
2019-03-13T07:03:48.831Z,5.95
2019-03-13T07:06:37.246Z,5.97
2019-03-13T07:09:27.079Z,6.00
2019-03-13T07:12:16.451Z,6.07
2019-03-13T07:15:09.345Z,6.13
2019-03-13T07:17:54.452Z,6.19
2019-03-13T07:20:47.633Z,6.25
2019-03-13T07:23:40.651Z,6.36
2019-03-13T07:26:45.858Z,6.41
2019-03-13T07:29:44.582Z,6.31
2019-03-13T07:32:27.739Z,6.21
2019-03-13T07:35:16.327Z,6.14
2019-03-13T07:38:10.638Z,6.13
2019-03-13T07:40:59.755Z,6.18
2019-03-13T07:43:58.657Z,6.32
2019-03-13T07:46:39.175Z,6.43
2019-03-13T07:49:27.543Z,6.49
2019-03-13T07:52:18.247Z,6.61
2019-03-13T07:55:17.038Z,6.64
2019-03-13T07:58:07.021Z,6.54
2019-03-13T08:00:56.996Z,6.55
2019-03-13T08:03:45.606Z,6.65
2019-03-13T08:06:47.678Z,6.60
2019-03-13T08:09:37.542Z,6.54
2019-03-13T08:12:30.367Z,6.41
2019-03-13T08:15:26.924Z,6.46
2019-03-13T08:18:15.303Z,6.64
2019-03-13T08:21:14.109Z,6.66
2019-03-13T08:24:03.785Z,6.67
2019-03-13T08:27:08.742Z,6.77
2019-03-13T08:30:01.799Z,6.80
2019-03-13T08:36:05.443Z,6.71
2019-03-13T08:38:53.780Z,6.63
2019-03-13T08:42:02.044Z,6.69
2019-03-13T08:44:50.318Z,6.74
2019-03-13T08:47:41.141Z,6.75
2019-03-13T08:50:36.985Z,6.67
2019-03-13T08:53:17.085Z,6.68
2019-03-13T08:56:13.607Z,6.70
2019-03-13T08:58:52.438Z,6.78
2019-03-13T09:01:48.488Z,6.76
2019-03-13T09:04:34.009Z,6.70
2019-03-13T09:07:22.503Z,6.41
2019-03-13T09:10:08.312Z,6.27
2019-03-13T09:12:49.434Z,6.17
2019-03-13T09:15:42.532Z,6.12
2019-03-13T09:18:28.824Z,6.17
2019-03-13T09:21:12.787Z,6.09
2019-03-13T09:24:01.781Z,6.05
2019-03-13T09:26:52.069Z,6.03
2019-03-13T09:30:00.530Z,6.07
2019-03-13T09:32:49.117Z,6.20
2019-03-13T09:35:39.311Z,6.32
2019-03-13T09:38:29.316Z,6.42
2019-03-13T09:41:17.793Z,6.39
2019-03-13T09:44:06.401Z,6.29
2019-03-13T09:47:02.230Z,6.28
2019-03-13T09:50:01.150Z,6.15
2019-03-13T09:52:58.486Z,6.08
2019-03-13T09:55:48.495Z,6.01
2019-03-13T09:58:46.299Z,5.83
2019-03-13T10:01:46.972Z,5.78
2019-03-13T10:04:39.736Z,5.75
2019-03-13T10:07:27.812Z,5.82
2019-03-13T10:10:14.221Z,5.95
2019-03-13T10:13:02.846Z,6.24
2019-03-13T10:16:01.946Z,6.53
2019-03-13T10:18:50.998Z,6.72
2019-03-13T10:21:28.943Z,6.63
2019-03-13T10:24:09.781Z,6.51
2019-03-13T10:27:00.743Z,6.55
2019-03-13T10:29:44.671Z,6.61
2019-03-13T10:32:33.147Z,6.78
2019-03-13T10:35:23.487Z,6.84
2019-03-13T10:38:14.427Z,6.84
2019-03-13T10:41:22.915Z,6.75
2019-03-13T10:44:25.393Z,6.80
2019-03-13T10:47:10.177Z,6.85
2019-03-13T10:50:00.919Z,6.93
2019-03-13T10:52:58.620Z,6.94
2019-03-13T10:56:09.253Z,6.94
2019-03-13T10:59:17.602Z,6.88
2019-03-13T11:02:00.792Z,6.93
2019-03-13T11:04:53.808Z,7.11
2019-03-13T11:07:56.435Z,7.24
2019-03-13T11:10:42.473Z,7.46
2019-03-13T11:13:38.857Z,7.63
2019-03-13T11:16:28.975Z,7.53
2019-03-13T11:19:20.399Z,7.70
2019-03-13T11:22:06.401Z,7.49
2019-03-13T11:24:43.170Z,7.51
2019-03-13T11:27:33.266Z,7.61
2019-03-13T11:33:16.001Z,7.67
2019-03-13T11:36:04.636Z,7.52
2019-03-13T11:38:55.023Z,7.50
2019-03-13T11:41:57.249Z,7.50
2019-03-13T11:44:50.513Z,7.60
2019-03-13T11:47:41.362Z,7.82
2019-03-13T11:50:27.125Z,7.93
2019-03-13T11:53:18.913Z,7.89
2019-03-13T11:56:08.203Z,7.85
2019-03-13T11:58:49.150Z,7.73
2019-03-13T12:01:57.385Z,7.66
2019-03-13T12:05:02.685Z,7.64
2019-03-13T12:07:55.821Z,7.74
2019-03-13T12:10:43.133Z,7.74
2019-03-13T12:13:31.978Z,7.55
2019-03-13T12:16:22.100Z,7.32
2019-03-13T12:19:15.249Z,7.10
2019-03-13T12:22:05.420Z,6.79
2019-03-13T12:24:54.506Z,6.67
2019-03-13T12:27:36.145Z,6.62
2019-03-13T12:30:28.899Z,6.65
2019-03-13T12:33:17.902Z,6.60
2019-03-13T12:36:07.532Z,6.54
2019-03-13T12:39:00.658Z,6.66
2019-03-13T12:42:04.426Z,6.64
2019-03-13T12:44:54.499Z,6.70
2019-03-13T12:47:33.429Z,6.68
2019-03-13T12:50:16.471Z,6.68
2019-03-13T12:53:06.630Z,6.60
2019-03-13T12:55:56.932Z,6.51
2019-03-13T12:58:41.631Z,6.44
2019-03-13T13:01:28.490Z,6.35
2019-03-13T13:04:21.490Z,6.26
2019-03-13T13:07:01.876Z,6.23
2019-03-13T13:09:51.955Z,6.20
2019-03-13T13:12:40.777Z,6.24
2019-03-13T13:15:30.488Z,6.33
2019-03-13T13:18:19.051Z,6.40
2019-03-13T13:20:50.985Z,6.46
2019-03-13T13:23:22.767Z,6.65
2019-03-13T13:25:54.763Z,6.68
2019-03-13T13:28:26.906Z,6.66
2019-03-13T13:30:58.299Z,6.66
2019-03-13T13:33:29.748Z,6.60
2019-03-13T13:36:08.945Z,6.56
2019-03-13T13:38:40.382Z,6.53
2019-03-13T13:41:11.800Z,6.70
2019-03-13T13:43:43.331Z,6.94
2019-03-13T13:46:33.264Z,7.13
2019-03-13T13:49:04.912Z,7.44
2019-03-13T13:51:36.227Z,7.60
2019-03-13T13:54:07.661Z,7.83
2019-03-13T13:56:38.951Z,8.13
2019-03-13T13:59:10.475Z,8.35
2019-03-13T14:01:42.428Z,7.96
2019-03-13T14:04:13.879Z,7.88
2019-03-13T14:06:45.532Z,7.62
2019-03-13T14:09:16.960Z,7.38
2019-03-13T14:11:48.290Z,7.26
2019-03-13T14:14:19.588Z,7.22
2019-03-13T14:16:51.052Z,7.41
2019-03-13T14:19:22.361Z,7.43
2019-03-13T14:21:53.647Z,7.31
2019-03-13T14:24:24.923Z,7.17
2019-03-13T14:27:13.469Z,7.05
2019-03-13T14:29:51.089Z,7.04
2019-03-13T14:32:22.382Z,6.94
2019-03-13T14:34:53.660Z,6.91
2019-03-13T14:37:25.068Z,6.83
2019-03-13T14:40:03.071Z,6.73
2019-03-13T14:42:33.676Z,6.67
2019-03-13T14:45:05.342Z,6.61
2019-03-13T14:47:36.602Z,6.63
2019-03-13T14:50:09.160Z,6.56
2019-03-13T14:52:40.515Z,6.53
2019-03-13T14:55:12.986Z,6.57
2019-03-13T14:57:44.346Z,6.60
2019-03-13T15:00:18.149Z,6.53
2019-03-13T15:02:49.679Z,6.54
2019-03-13T15:05:20.959Z,6.59
2019-03-13T15:07:52.229Z,6.66
2019-03-13T15:10:23.492Z,6.63
2019-03-13T15:12:54.679Z,6.71
2019-03-13T15:15:25.863Z,6.70
2019-03-13T15:17:57.271Z,6.81
2019-03-13T15:20:28.552Z,6.91
2019-03-13T15:22:59.770Z,6.98
2019-03-13T15:25:31.077Z,7.29
2019-03-13T15:28:02.359Z,7.32
2019-03-13T15:30:33.946Z,7.23
2019-03-13T15:33:05.148Z,7.17
2019-03-13T15:35:36.423Z,7.19
2019-03-13T15:38:07.704Z,7.20
2019-03-13T15:40:39.211Z,7.10
2019-03-13T15:43:10.419Z,7.08
2019-03-13T15:45:41.747Z,7.06
2019-03-13T15:48:12.942Z,7.05
2019-03-13T15:50:44.129Z,7.08
2019-03-13T15:53:15.434Z,7.10
2019-03-13T15:56:05.843Z,7.08
2019-03-13T15:58:56.129Z,7.09
2019-03-13T16:01:27.351Z,7.07
2019-03-13T16:03:58.694Z,7.20
2019-03-13T16:06:30.035Z,7.28
2019-03-13T16:09:01.382Z,7.39
2019-03-13T16:11:32.678Z,7.41
2019-03-13T16:14:04.029Z,7.37
2019-03-13T16:16:35.183Z,7.19
2019-03-13T16:19:06.413Z,7.04
2019-03-13T16:21:37.709Z,6.83
2019-03-13T16:24:09.111Z,6.69
2019-03-13T16:26:40.358Z,6.52
2019-03-13T16:29:11.578Z,6.43
2019-03-13T16:32:28.184Z,6.35
2019-03-13T16:34:59.552Z,6.33
2019-03-13T16:37:30.819Z,6.39
2019-03-13T16:40:02.027Z,6.39
2019-03-13T16:42:33.283Z,6.45
2019-03-13T16:45:04.735Z,6.51
2019-03-13T16:47:36.010Z,6.50
2019-03-13T16:50:09.411Z,6.49
2019-03-13T16:52:40.741Z,6.51
2019-03-13T16:55:15.129Z,6.45
2019-03-13T16:57:46.428Z,6.49
2019-03-13T17:00:22.348Z,6.42
2019-03-13T17:02:53.999Z,6.39
2019-03-13T17:05:29.310Z,6.28
2019-03-13T17:08:04.070Z,6.32
2019-03-13T17:10:38.002Z,6.36
2019-03-13T17:13:09.112Z,6.25
2019-03-13T17:15:40.660Z,6.35
2019-03-13T17:18:14.154Z,6.42
2019-03-13T17:20:46.316Z,6.49
2019-03-13T17:23:17.470Z,6.44
2019-03-13T17:25:48.739Z,6.45
2019-03-13T17:28:19.970Z,6.45
2019-03-13T17:30:51.427Z,6.46
2019-03-13T17:33:22.667Z,6.34
2019-03-13T17:35:54.006Z,6.34
2019-03-13T17:38:28.367Z,6.34
2019-03-13T17:40:59.885Z,6.37
2019-03-13T17:43:38.964Z,6.44
2019-03-13T17:46:07.031Z,6.43
2019-03-13T17:48:39.458Z,6.47
2019-03-13T17:51:10.906Z,6.48
2019-03-13T17:53:42.469Z,6.38
2019-03-13T17:56:13.707Z,6.46
2019-03-13T17:58:44.889Z,6.37
2019-03-13T18:01:16.160Z,6.40
2019-03-13T18:03:49.909Z,6.40
2019-03-13T18:06:22.547Z,6.38
2019-03-13T18:08:55.653Z,6.43
2019-03-13T18:11:28.080Z,6.53
2019-03-13T18:14:04.055Z,6.53
2019-03-13T18:16:39.639Z,6.42
2019-03-13T18:19:11.043Z,6.46
2019-03-13T18:21:47.299Z,6.41
2019-03-13T18:24:21.947Z,6.51
2019-03-13T18:26:56.695Z,6.41
2019-03-13T18:29:27.973Z,6.39
2019-03-13T18:32:02.652Z,6.40
2019-03-13T18:34:35.502Z,6.31
2019-03-13T18:37:07.199Z,6.22
2019-03-13T18:39:40.008Z,6.18
2019-03-13T18:42:11.540Z,6.03
2019-03-13T18:44:42.854Z,6.25
2019-03-13T18:47:16.876Z,6.36
2019-03-13T18:50:07.581Z,6.32
2019-03-13T18:52:59.186Z,6.20
2019-03-13T18:55:30.500Z,6.11
2019-03-13T18:58:03.019Z,5.99
2019-03-13T19:00:34.752Z,5.98
2019-03-13T19:03:07.579Z,6.04
2019-03-13T19:05:39.228Z,6.03
2019-03-13T19:08:11.972Z,6.07
2019-03-13T19:10:43.156Z,6.18
2019-03-13T19:13:14.675Z,6.20
2019-03-13T19:15:46.046Z,6.27
2019-03-13T19:18:21.534Z,6.38
2019-03-13T19:20:53.958Z,6.44
2019-03-13T19:23:31.242Z,6.47
2019-03-13T19:26:02.672Z,6.44
2019-03-13T19:28:34.221Z,6.42
2019-03-13T19:31:05.495Z,6.34
2019-03-13T19:33:38.118Z,6.43
2019-03-13T19:36:11.342Z,6.55
2019-03-13T19:38:45.352Z,6.55
2019-03-13T19:41:16.725Z,6.61
2019-03-13T19:43:47.895Z,6.69
2019-03-13T19:46:19.121Z,6.68
2019-03-13T19:48:52.769Z,6.62
2019-03-13T19:51:23.991Z,6.56
2019-03-13T19:53:55.299Z,6.45
2019-03-13T19:56:26.545Z,6.52
2019-03-13T19:58:57.848Z,6.45
2019-03-13T20:01:29.110Z,6.46
2019-03-13T20:04:47.506Z,6.38
2019-03-13T20:07:17.858Z,6.35
2019-03-13T20:09:49.055Z,6.30
2019-03-13T20:12:22.240Z,6.40
2019-03-13T20:14:53.492Z,6.38
2019-03-13T20:17:44.763Z,6.44
2019-03-13T20:20:19.125Z,6.56
2019-03-13T20:23:02.726Z,6.55
2019-03-13T20:25:34.063Z,6.59
2019-03-13T20:28:05.481Z,6.58
2019-03-13T20:30:36.994Z,6.60
2019-03-13T20:33:08.533Z,6.62
2019-03-13T20:35:39.825Z,6.57
2019-03-13T20:38:36.377Z,6.59
2019-03-13T20:41:10.202Z,6.55
2019-03-13T20:43:41.639Z,6.53
2019-03-13T20:46:35.964Z,6.45
2019-03-13T20:49:07.292Z,6.33
2019-03-13T20:51:42.019Z,6.26
2019-03-13T20:54:16.480Z,6.21
2019-03-13T20:56:50.347Z,6.01
2019-03-13T20:59:21.586Z,5.88
2019-03-13T21:01:52.981Z,5.79
2019-03-13T21:04:24.272Z,5.65
2019-03-13T21:06:55.760Z,5.56
2019-03-13T21:09:27.089Z,5.54
2019-03-13T21:12:07.228Z,5.57
2019-03-13T21:14:39.081Z,5.59
2019-03-13T21:17:10.329Z,5.63
2019-03-13T21:19:41.671Z,5.68
2019-03-13T21:22:13.015Z,5.63
2019-03-13T21:24:44.354Z,5.51
2019-03-13T21:27:15.705Z,5.41
2019-03-13T21:29:47.129Z,5.43
2019-03-13T21:32:18.453Z,5.28
2019-03-13T21:34:49.952Z,5.29
2019-03-13T21:37:21.467Z,5.21
2019-03-13T21:39:52.741Z,5.21
2019-03-13T21:42:24.064Z,4.97
2019-03-13T21:44:55.339Z,5.16
2019-03-13T21:47:26.597Z,5.21
2019-03-13T21:49:57.901Z,5.13
2019-03-13T21:52:32.560Z,5.40
2019-03-13T21:55:03.857Z,5.48
2019-03-13T21:57:35.182Z,5.57
2019-03-13T22:00:09.587Z,5.69
2019-03-13T22:02:40.960Z,5.83
2019-03-13T22:05:24.686Z,5.82
2019-03-13T22:07:45.508Z,5.88
2019-03-13T22:10:17.574Z,5.76
2019-03-13T22:12:49.035Z,5.81
2019-03-13T22:15:20.476Z,5.67
2019-03-13T22:17:52.142Z,5.72
2019-03-13T22:20:23.424Z,5.76
2019-03-13T22:22:54.666Z,5.73
2019-03-13T22:25:25.949Z,5.80
2019-03-13T22:27:57.278Z,5.69
2019-03-13T22:30:29.183Z,5.67
2019-03-13T22:33:00.490Z,5.61
2019-03-13T22:35:31.864Z,5.65
2019-03-13T22:38:03.111Z,5.81
2019-03-13T22:40:34.402Z,5.92
2019-03-13T22:43:05.698Z,5.91
2019-03-13T22:45:36.880Z,5.82
2019-03-13T22:48:08.135Z,5.91
2019-03-13T22:50:39.398Z,6.01
2019-03-13T22:53:10.676Z,5.99
2019-03-13T22:55:41.947Z,5.94
2019-03-13T22:58:13.174Z,5.89
2019-03-13T23:01:07.389Z,5.86
2019-03-13T23:03:40.539Z,5.84
2019-03-13T23:06:12.111Z,5.86
2019-03-13T23:08:43.649Z,5.92
2019-03-13T23:11:34.020Z,5.99
2019-03-13T23:14:24.269Z,6.06
2019-03-13T23:16:55.612Z,6.09
2019-03-13T23:19:26.968Z,6.07
2019-03-13T23:21:58.915Z,6.06
2019-03-13T23:24:30.582Z,5.96
2019-03-13T23:27:01.731Z,5.90
2019-03-13T23:29:33.102Z,5.80
2019-03-13T23:32:04.298Z,5.68
2019-03-13T23:34:36.483Z,5.57
2019-03-13T23:37:07.746Z,5.54
2019-03-13T23:39:39.041Z,5.50
2019-03-13T23:42:10.231Z,5.59
2019-03-13T23:44:41.497Z,5.65
2019-03-13T23:47:12.782Z,5.69
2019-03-13T23:49:44.036Z,5.70
2019-03-13T23:52:20.312Z,5.69
2019-03-13T23:54:51.444Z,5.71
2019-03-13T23:57:22.738Z,5.61
2019-03-13T23:59:53.970Z,5.51
